Time;durP1;ratioP1;P1;durP2;ratioP2;P2;SDS_P1;SDS_P2;PMS_P1;PMS_P2;Temp;Humidity;BMP_temperature;BMP_pressure;BME280_temperature;BME280_humidity;BME280_pressure;Samples;Min_cycle;Max_cycle;Signal;HPM_P1;HPM_P2
2023/08/28 00:02:23;;;;;;;8.07;2.20;;;14.60;99.90;;;;;;5153968;27;20561;-72
2023/08/28 00:04:49;;;;;;;3.17;1.30;;;14.50;99.90;;;;;;5135979;27;20047;-71
2023/08/28 00:07:15;;;;;;;2.77;1.20;;;14.50;99.90;;;;;;5135738;27;20061;-72
2023/08/28 00:09:41;;;;;;;4.40;1.60;;;14.50;99.90;;;;;;5136119;27;20039;-71
2023/08/28 00:12:07;;;;;;;2.43;1.20;;;14.40;99.90;;;;;;5135888;27;20053;-72
2023/08/28 00:14:33;;;;;;;4.30;1.20;;;14.30;99.90;;;;;;5154239;27;20509;-72
2023/08/28 00:16:59;;;;;;;4.47;2.10;;;14.40;99.90;;;;;;5154014;27;20276;-72
2023/08/28 00:19:25;;;;;;;3.03;1.23;;;14.40;99.90;;;;;;5135579;27;20047;-71
2023/08/28 00:21:51;;;;;;;4.10;1.50;;;14.30;99.90;;;;;;5154227;27;20047;-71
2023/08/28 00:24:16;;;;;;;2.10;1.20;;;14.30;99.90;;;;;;5135716;27;20039;-72
2023/08/28 00:26:42;;;;;;;5.10;1.50;;;14.30;99.90;;;;;;5136326;27;20047;-71
2023/08/28 00:29:08;;;;;;;4.17;1.13;;;14.30;99.90;;;;;;5118622;27;20110;-71
2023/08/28 00:31:33;;;;;;;3.17;1.30;;;14.40;99.90;;;;;;5135777;27;20053;-71
2023/08/28 00:33:59;;;;;;;3.67;1.40;;;14.40;99.90;;;;;;5118707;27;20203;-71
2023/08/28 00:36:25;;;;;;;3.30;1.47;;;14.30;99.90;;;;;;5118196;27;20046;-72
2023/08/28 00:38:51;;;;;;;5.37;1.40;;;14.40;99.90;;;;;;5118756;27;20045;-71
2023/08/28 00:41:16;;;;;;;4.80;1.50;;;14.40;99.90;;;;;;5118475;27;20038;-72
2023/08/28 00:43:42;;;;;;;4.00;1.37;;;14.40;99.90;;;;;;5135645;27;20050;-71
2023/08/28 00:46:08;;;;;;;3.93;1.60;;;14.30;99.90;;;;;;5135759;27;20054;-71
2023/08/28 00:48:35;;;;;;;5.30;1.60;;;14.30;99.90;;;;;;5156810;27;20050;-71
2023/08/28 00:51:01;;;;;;;4.57;1.70;;;14.30;99.90;;;;;;5139254;27;20039;-71
2023/08/28 00:53:27;;;;;;;3.30;1.60;;;14.30;99.90;;;;;;5157370;27;20175;-72
2023/08/28 00:55:53;;;;;;;4.67;1.70;;;14.30;99.90;;;;;;5139418;27;20492;-71
2023/08/28 00:58:21;;;;;;;5.60;1.57;;;14.30;99.90;;;;;;5138762;27;20129;-71
2023/08/28 01:00:47;;;;;;;5.50;1.90;;;14.30;99.90;;;;;;5122121;27;20056;-71
2023/08/28 01:03:12;;;;;;;5.30;1.40;;;14.30;99.90;;;;;;5139095;27;20280;-71
2023/08/28 01:06:03;;;;;;;4.00;1.30;;;14.20;99.90;;;;;;5138731;27;20039;-71
2023/08/28 01:09:04;;;;;;;2.90;1.53;;;14.20;99.90;;;;;;5138675;27;20042;-71
2023/08/28 01:11:49;;;;;;;2.83;1.40;;;14.20;99.90;;;;;;5157247;27;20054;-71
2023/08/28 01:14:25;;;;;;;3.60;1.40;;;14.10;99.90;;;;;;5138762;27;20054;-71
2023/08/28 01:16:57;;;;;;;5.20;1.53;;;14.00;99.90;;;;;;5157218;27;20276;-71
2023/08/28 01:19:29;;;;;;;4.07;1.93;;;14.00;99.90;;;;;;5138821;27;20103;-71
2023/08/28 01:22:18;;;;;;;5.33;1.63;;;14.10;99.90;;;;;;5138944;27;20378;-71
2023/08/28 01:24:51;;;;;;;3.30;1.40;;;14.00;99.90;;;;;;5139910;27;20276;-71
2023/08/28 01:27:21;;;;;;;4.00;1.93;;;14.00;99.90;;;;;;5138368;27;20759;-71
2023/08/28 01:30:05;;;;;;;4.23;1.50;;;13.90;99.90;;;;;;5138607;27;20393;-71
2023/08/28 01:32:30;;;;;;;5.57;2.00;;;13.90;99.90;;;;;;5156855;27;20086;-72
2023/08/28 01:34:56;;;;;;;4.10;1.50;;;13.90;99.90;;;;;;5138737;27;20050;-72
2023/08/28 01:37:27;;;;;;;6.77;2.20;;;13.90;99.90;;;;;;5156575;27;20035;-72
2023/08/28 01:39:57;;;;;;;5.27;1.70;;;13.80;99.90;;;;;;5138336;27;20130;-72
2023/08/28 01:42:23;;;;;;;4.40;1.70;;;13.80;99.90;;;;;;5138364;27;20057;-72
2023/08/28 01:44:54;;;;;;;6.37;2.00;;;13.80;99.90;;;;;;5156639;27;20280;-72
2023/08/28 01:47:22;;;;;;;6.33;1.67;;;13.70;99.90;;;;;;5138133;27;20648;-76
2023/08/28 01:49:48;;;;;;;4.67;1.70;;;13.80;99.90;;;;;;5156619;27;20280;-72
2023/08/28 01:52:14;;;;;;;3.87;1.73;;;13.70;99.90;;;;;;5138317;27;20612;-72
2023/08/28 01:54:39;;;;;;;3.23;1.40;;;13.70;99.90;;;;;;5137821;27;20074;-72
2023/08/28 01:57:05;;;;;;;6.40;2.07;;;13.70;99.90;;;;;;5138132;27;20467;-72
2023/08/28 01:59:31;;;;;;;3.40;1.70;;;13.70;99.90;;;;;;5156225;27;20042;-72
2023/08/28 02:01:56;;;;;;;3.43;1.80;;;13.70;99.90;;;;;;5121323;27;20368;-72
2023/08/28 02:04:22;;;;;;;6.77;1.90;;;13.70;99.90;;;;;;5137662;27;20045;-77
2023/08/28 02:06:48;;;;;;;4.53;1.43;;;13.70;99.90;;;;;;5138038;27;20129;-72
2023/08/28 02:09:13;;;;;;;5.03;2.23;;;13.70;99.90;;;;;;5137705;27;20049;-72
2023/08/28 02:11:39;;;;;;;3.93;1.67;;;13.60;99.90;;;;;;5137631;27;20053;-72
2023/08/28 02:14:06;;;;;;;4.33;1.53;;;13.70;99.90;;;;;;5156305;27;20054;-72
2023/08/28 02:16:34;;;;;;;3.77;1.83;;;13.70;99.90;;;;;;5137402;27;20333;-72
2023/08/28 02:18:59;;;;;;;4.23;1.70;;;13.60;99.90;;;;;;5156346;27;20039;-72
2023/08/28 02:21:25;;;;;;;4.50;1.70;;;13.60;99.90;;;;;;5137456;27;20627;-73
2023/08/28 02:23:51;;;;;;;3.90;1.77;;;13.50;99.90;;;;;;5137711;27;20092;-72
2023/08/28 02:26:16;;;;;;;6.10;1.90;;;13.50;99.90;;;;;;5155940;27;20122;-72
2023/08/28 02:28:42;;;;;;;4.77;2.13;;;13.50;99.90;;;;;;5137111;27;20042;-72
2023/08/28 02:31:08;;;;;;;4.43;2.23;;;13.50;99.90;;;;;;5137219;27;20049;-72
2023/08/28 02:33:33;;;;;;;3.67;1.90;;;13.50;99.90;;;;;;5155509;27;20057;-72
2023/08/28 02:36:03;;;;;;;5.90;1.80;;;13.50;99.90;;;;;;5136913;27;20063;-72
2023/08/28 02:38:28;;;;;;;4.83;2.00;;;13.50;99.90;;;;;;5155404;27;20051;-72
2023/08/28 02:41:05;;;;;;;5.57;2.10;;;13.50;99.90;;;;;;5137271;27;20388;-72
2023/08/28 02:43:31;;;;;;;3.43;1.83;;;13.40;99.90;;;;;;5136710;27;20521;-72
2023/08/28 02:45:56;;;;;;;5.17;2.00;;;13.40;99.90;;;;;;5120495;27;20288;-72
2023/08/28 02:48:22;;;;;;;9.37;2.43;;;13.30;99.90;;;;;;5120160;27;20664;-72
2023/08/28 02:50:49;;;;;;;5.17;2.17;;;13.30;99.90;;;;;;5136736;27;20606;-72
2023/08/28 02:53:15;;;;;;;6.57;2.77;;;13.40;99.90;;;;;;5137251;27;20039;-72
2023/08/28 02:55:42;;;;;;;5.13;2.30;;;13.30;99.90;;;;;;5136393;27;20296;-72
2023/08/28 02:58:08;;;;;;;4.40;2.10;;;13.30;99.90;;;;;;5155285;27;20275;-72
2023/08/28 03:00:37;;;;;;;4.97;2.60;;;13.30;99.90;;;;;;5136413;27;20341;-73
2023/08/28 03:03:03;;;;;;;4.73;2.70;;;13.30;99.90;;;;;;5103252;27;20681;-72
2023/08/28 03:05:29;;;;;;;6.23;2.00;;;13.30;99.90;;;;;;5155158;27;20295;-76
2023/08/28 03:07:55;;;;;;;6.43;2.63;;;13.30;99.90;;;;;;5137014;27;20303;-72
2023/08/28 03:10:21;;;;;;;7.53;2.27;;;13.30;99.90;;;;;;5119103;27;20043;-72
2023/08/28 03:12:46;;;;;;;4.47;2.50;;;13.30;99.90;;;;;;5136201;27;20050;-72
2023/08/28 03:15:12;;;;;;;6.37;2.50;;;13.30;99.90;;;;;;5136470;27;20087;-72
2023/08/28 03:17:38;;;;;;;5.07;2.33;;;13.30;99.90;;;;;;5136336;27;20079;-72
2023/08/28 03:20:04;;;;;;;5.27;2.53;;;13.30;99.90;;;;;;5154927;27;20046;-72
2023/08/28 03:22:29;;;;;;;5.17;2.30;;;13.30;99.90;;;;;;5155064;27;20125;-72
2023/08/28 03:24:55;;;;;;;5.07;2.40;;;13.30;99.90;;;;;;5102197;27;20824;-72
2023/08/28 03:27:21;;;;;;;3.57;2.20;;;13.20;99.90;;;;;;5119232;27;20046;-72
2023/08/28 03:29:48;;;;;;;5.17;2.60;;;13.30;99.90;;;;;;5136242;27;20107;-72
2023/08/28 03:32:13;;;;;;;5.23;2.90;;;13.30;99.90;;;;;;5154869;27;20283;-72
2023/08/28 03:34:39;;;;;;;4.80;2.60;;;13.30;99.90;;;;;;5154504;27;20291;-72
2023/08/28 03:37:05;;;;;;;5.33;2.63;;;13.30;99.90;;;;;;5136413;27;20069;-72
2023/08/28 03:39:31;;;;;;;5.20;2.50;;;13.30;99.90;;;;;;5102562;27;20082;-72
2023/08/28 03:41:57;;;;;;;4.00;2.50;;;13.30;99.90;;;;;;5153917;27;20323;-72
2023/08/28 03:44:22;;;;;;;4.70;2.23;;;13.30;99.90;;;;;;5136023;27;20095;-72
2023/08/28 03:46:48;;;;;;;7.70;2.70;;;13.20;99.90;;;;;;5136220;27;20050;-72
2023/08/28 03:49:14;;;;;;;6.43;2.83;;;13.20;99.90;;;;;;5119094;27;20045;-72
2023/08/28 03:51:39;;;;;;;7.43;2.60;;;13.20;99.90;;;;;;5135891;27;20043;-72
2023/08/28 03:54:11;;;;;;;5.60;2.47;;;13.20;99.90;;;;;;5136187;27;20042;-72
2023/08/28 03:56:37;;;;;;;3.73;2.00;;;13.20;99.90;;;;;;5118946;27;20502;-72
2023/08/28 03:59:02;;;;;;;3.70;2.30;;;13.20;99.90;;;;;;5136171;27;20288;-72
2023/08/28 04:01:28;;;;;;;6.50;2.50;;;13.20;99.90;;;;;;5154477;27;20042;-72
2023/08/28 04:03:54;;;;;;;5.87;2.20;;;13.20;99.90;;;;;;5135959;27;20050;-72
2023/08/28 04:06:21;;;;;;;5.57;2.13;;;13.10;99.90;;;;;;5136100;27;20046;-72
2023/08/28 04:08:47;;;;;;;5.17;2.30;;;13.10;99.90;;;;;;5135833;27;20039;-72
2023/08/28 04:11:13;;;;;;;6.00;2.20;;;13.10;99.90;;;;;;5154423;27;20288;-72
2023/08/28 04:13:38;;;;;;;3.93;2.10;;;13.10;99.90;;;;;;5154042;27;20057;-73
2023/08/28 04:16:05;;;;;;;5.27;2.03;;;13.10;99.90;;;;;;5154066;27;20039;-72
2023/08/28 04:18:31;;;;;;;3.97;1.93;;;13.20;99.90;;;;;;5102207;27;20049;-72
2023/08/28 04:20:57;;;;;;;6.13;2.03;;;13.20;99.90;;;;;;5135590;27;20291;-72
2023/08/28 04:23:23;;;;;;;4.40;2.10;;;13.10;99.90;;;;;;5157205;27;20284;-72
2023/08/28 04:25:48;;;;;;;5.33;2.17;;;13.10;99.90;;;;;;5158126;27;20039;-72
2023/08/28 04:28:15;;;;;;;4.43;2.23;;;13.10;99.90;;;;;;5139573;27;20042;-72
2023/08/28 04:30:42;;;;;;;3.63;2.00;;;13.10;99.90;;;;;;5157981;27;20162;-72
2023/08/28 04:33:07;;;;;;;6.03;2.10;;;13.10;99.90;;;;;;5139960;27;20291;-72
2023/08/28 04:35:33;;;;;;;3.70;2.03;;;13.10;99.90;;;;;;5158178;27;20623;-72
2023/08/28 04:37:59;;;;;;;4.70;2.33;;;13.10;99.90;;;;;;5105519;27;20051;-72
2023/08/28 04:40:25;;;;;;;3.90;2.23;;;13.00;99.90;;;;;;5139728;27;20089;-72
2023/08/28 04:42:50;;;;;;;6.03;2.33;;;13.00;99.90;;;;;;5157513;27;20054;-72
2023/08/28 04:45:16;;;;;;;4.07;2.40;;;13.00;99.90;;;;;;5139639;27;20035;-72
2023/08/28 04:47:42;;;;;;;3.13;2.00;;;13.00;99.90;;;;;;5139269;27;20403;-73
2023/08/28 04:50:08;;;;;;;3.83;2.27;;;13.00;99.90;;;;;;5122232;27;20049;-72
2023/08/28 04:52:33;;;;;;;3.90;2.20;;;13.00;99.90;;;;;;5139346;27;20463;-72
2023/08/28 04:54:59;;;;;;;4.10;2.13;;;13.00;99.90;;;;;;5139162;27;20394;-72
2023/08/28 04:57:25;;;;;;;5.33;2.80;;;13.00;99.90;;;;;;5139357;27;20486;-72
2023/08/28 04:59:50;;;;;;;6.17;2.43;;;13.00;99.90;;;;;;5138892;27;20135;-72
2023/08/28 05:02:16;;;;;;;5.80;2.50;;;13.00;99.90;;;;;;5122272;27;20054;-72
2023/08/28 05:04:42;;;;;;;4.00;2.27;;;13.00;99.90;;;;;;5139127;27;20085;-72
2023/08/28 05:07:07;;;;;;;4.40;2.20;;;13.00;99.90;;;;;;5121797;27;20047;-72
2023/08/28 05:09:33;;;;;;;3.57;2.17;;;13.00;99.90;;;;;;5138752;27;20042;-72
2023/08/28 05:11:59;;;;;;;4.40;2.20;;;13.00;99.90;;;;;;5156833;27;20398;-72
2023/08/28 05:14:25;;;;;;;4.47;2.40;;;13.00;99.90;;;;;;5157360;27;20050;-72
2023/08/28 05:16:50;;;;;;;5.67;2.37;;;13.00;99.90;;;;;;5156740;27;20038;-72
2023/08/28 05:19:16;;;;;;;3.80;2.50;;;13.00;99.90;;;;;;5157205;27;20043;-72
2023/08/28 05:21:42;;;;;;;4.53;2.30;;;13.00;99.90;;;;;;5157244;27;20479;-72
2023/08/28 05:24:07;;;;;;;5.07;2.10;;;13.10;99.90;;;;;;5121447;27;20078;-72
2023/08/28 05:26:33;;;;;;;3.60;2.20;;;13.00;99.90;;;;;;5157284;27;20473;-72
2023/08/28 05:28:59;;;;;;;5.73;2.60;;;13.10;99.90;;;;;;5138210;27;20043;-71
2023/08/28 05:31:24;;;;;;;5.27;2.67;;;13.10;99.90;;;;;;5156754;27;20494;-72
2023/08/28 05:33:50;;;;;;;5.60;3.10;;;13.20;99.90;;;;;;5155900;27;20049;-72
2023/08/28 05:36:16;;;;;;;7.17;3.37;;;13.10;99.90;;;;;;5138622;27;20046;-71
2023/08/28 05:38:41;;;;;;;4.30;2.90;;;13.20;99.90;;;;;;5138778;27;20051;-74
2023/08/28 05:41:07;;;;;;;7.27;2.93;;;13.20;99.90;;;;;;5104248;27;20131;-74
2023/08/28 05:43:33;;;;;;;7.53;3.17;;;13.20;99.90;;;;;;5121341;27;20087;-73
2023/08/28 05:45:58;;;;;;;5.70;2.60;;;13.30;99.90;;;;;;5156421;27;20129;-73
2023/08/28 05:48:24;;;;;;;5.70;2.80;;;13.40;99.90;;;;;;5138167;27;20123;-73
2023/08/28 05:50:50;;;;;;;4.20;2.77;;;13.40;99.90;;;;;;5137946;27;20046;-74
2023/08/28 05:53:16;;;;;;;5.03;3.07;;;13.40;99.90;;;;;;5121458;27;20065;-75
2023/08/28 05:55:42;;;;;;;4.63;2.73;;;13.40;99.90;;;;;;5137584;27;20775;-74
2023/08/28 05:58:08;;;;;;;8.17;3.20;;;13.50;99.90;;;;;;5137772;27;20039;-74
2023/08/28 06:00:34;;;;;;;7.53;3.10;;;13.50;99.90;;;;;;5138268;27;20541;-74
2023/08/28 06:02:59;;;;;;;9.83;2.80;;;13.60;99.90;;;;;;5155940;27;20050;-72
2023/08/28 06:05:25;;;;;;;6.00;3.07;;;13.70;99.90;;;;;;5120883;27;20082;-70
2023/08/28 06:07:51;;;;;;;6.73;3.03;;;13.80;99.90;;;;;;5155681;27;20083;-74
2023/08/28 06:10:19;;;;;;;5.60;3.50;;;14.00;99.90;;;;;;5135866;27;20042;-75
2023/08/28 06:12:46;;;;;;;5.03;2.50;;;14.90;99.90;;;;;;5137799;27;20046;-74
2023/08/28 06:15:17;;;;;;;5.17;2.10;;;16.40;99.90;;;;;;5137585;27;20771;-74
2023/08/28 06:17:43;;;;;;;4.53;1.90;;;17.90;99.90;;;;;;5105500;27;20061;-74
2023/08/28 06:20:10;;;;;;;4.80;2.00;;;19.30;99.90;;;;;;5137596;27;20043;-74
2023/08/28 06:22:37;;;;;;;3.17;1.83;;;20.40;99.90;;;;;;5137791;27;20049;-74
2023/08/28 06:25:03;;;;;;;5.57;2.20;;;21.50;99.90;;;;;;5137615;27;20486;-74
2023/08/28 06:27:28;;;;;;;3.50;2.20;;;22.30;99.90;;;;;;5120722;27;20046;-74
2023/08/28 06:29:54;;;;;;;4.83;1.90;;;23.20;99.90;;;;;;5120380;27;20501;-75
2023/08/28 06:32:20;;;;;;;5.03;1.67;;;23.90;99.90;;;;;;5156045;27;20055;-74
2023/08/28 06:34:46;;;;;;;5.07;1.77;;;24.60;99.90;;;;;;5137721;27;20082;-74
2023/08/28 06:37:11;;;;;;;3.57;1.60;;;25.20;99.90;;;;;;5137411;27;20039;-74
2023/08/28 06:39:37;;;;;;;3.20;1.63;;;25.70;99.90;;;;;;5103387;27;20043;-74
2023/08/28 06:42:03;;;;;;;6.43;1.83;;;26.10;99.90;;;;;;5137104;27;20061;-74
2023/08/28 06:44:29;;;;;;;3.70;1.60;;;26.70;99.90;;;;;;5155307;27;20500;-74
2023/08/28 06:46:54;;;;;;;4.83;1.80;;;27.30;99.90;;;;;;5136808;27;20039;-75
2023/08/28 06:49:20;;;;;;;3.20;1.70;;;27.60;99.70;;;;;;5155615;27;20130;-74
2023/08/28 06:51:47;;;;;;;2.83;1.47;;;28.20;97.00;;;;;;5137478;27;20046;-74
2023/08/28 06:54:12;;;;;;;2.97;1.53;;;28.50;94.00;;;;;;5136870;27;20504;-75
2023/08/28 06:56:38;;;;;;;3.57;1.60;;;28.70;90.40;;;;;;5137316;27;20046;-74
2023/08/28 06:59:04;;;;;;;5.23;1.50;;;29.20;83.50;;;;;;5119520;27;20054;-75
2023/08/28 07:01:29;;;;;;;5.05;1.60;;;29.60;77.70;;;;;;5120161;27;20050;-75
2023/08/28 07:03:55;;;;;;;3.10;1.40;;;30.10;72.20;;;;;;5155642;27;20053;-78
2023/08/28 07:06:21;;;;;;;4.97;1.73;;;30.20;66.80;;;;;;5120101;27;20047;-74
2023/08/28 07:08:47;;;;;;;4.28;1.70;;;30.30;64.10;;;;;;5136718;27;20042;-74
2023/08/28 07:11:12;;;;;;;6.43;1.98;;;30.70;61.70;;;;;;5102679;27;20062;-74
2023/08/28 07:13:38;;;;;;;4.35;1.75;;;30.80;60.40;;;;;;5119257;27;20053;-74
2023/08/28 07:16:04;;;;;;;3.78;1.60;;;31.10;58.00;;;;;;5136456;27;20070;-73
2023/08/28 07:18:30;;;;;;;4.68;1.85;;;31.40;56.70;;;;;;5136659;27;20074;-73
2023/08/28 07:20:56;;;;;;;6.40;1.83;;;31.90;55.50;;;;;;5136890;27;20142;-73
2023/08/28 07:23:23;;;;;;;3.35;1.70;;;32.10;53.60;;;;;;5136409;27;20175;-73
2023/08/28 07:25:49;;;;;;;3.85;1.50;;;32.50;52.40;;;;;;5136582;27;20043;-73
2023/08/28 07:28:14;;;;;;;4.80;1.92;;;32.60;51.40;;;;;;5136351;27;20501;-73
2023/08/28 07:30:41;;;;;;;2.80;1.40;;;32.80;50.90;;;;;;5119666;27;20129;-73
2023/08/28 07:33:07;;;;;;;2.70;1.45;;;33.00;49.90;;;;;;5119478;27;20047;-73
2023/08/28 07:35:36;;;;;;;2.83;1.40;;;33.20;49.20;;;;;;5102525;27;20134;-73
2023/08/28 07:38:06;;;;;;;3.30;1.30;;;33.00;48.60;;;;;;5119707;27;20069;-73
2023/08/28 07:40:32;;;;;;;4.38;1.50;;;33.40;46.70;;;;;;5136489;27;20054;-73
2023/08/28 07:42:59;;;;;;;3.67;1.67;;;33.40;47.20;;;;;;5136241;27;20504;-73
2023/08/28 07:45:25;;;;;;;1.98;1.20;;;33.40;46.40;;;;;;5136618;27;20049;-73
2023/08/28 07:47:51;;;;;;;2.63;1.52;;;33.60;46.70;;;;;;5119196;27;20122;-74
2023/08/28 07:50:17;;;;;;;2.78;1.40;;;33.90;45.80;;;;;;5136073;27;20494;-75
2023/08/28 07:52:43;;;;;;;3.05;1.30;;;34.10;45.30;;;;;;5085488;27;20486;-74
2023/08/28 07:55:09;;;;;;;3.28;1.20;;;33.70;51.70;;;;;;5136319;27;20050;-74
2023/08/28 07:57:34;;;;;;;3.58;1.33;;;33.00;52.60;;;;;;5122296;27;20122;-74
2023/08/28 08:00:06;;;;;;;3.80;1.52;;;32.00;53.60;;;;;;5140649;27;20529;-74
2023/08/28 08:02:32;;;;;;;3.92;1.13;;;30.90;55.00;;;;;;5106810;27;20082;-74
2023/08/28 08:04:58;;;;;;;2.63;1.10;;;30.20;56.60;;;;;;5140614;27;20046;-73
2023/08/28 08:07:24;;;;;;;4.03;1.55;;;29.50;58.00;;;;;;5106201;27;20182;-74
2023/08/28 08:09:49;;;;;;;3.40;1.20;;;28.90;59.00;;;;;;5106314;27;20098;-74
2023/08/28 08:12:15;;;;;;;2.80;1.40;;;28.30;59.50;;;;;;5139536;27;20054;-74
2023/08/28 08:14:41;;;;;;;3.17;1.77;;;27.80;60.20;;;;;;5140410;27;20061;-74
2023/08/28 08:17:07;;;;;;;3.15;1.15;;;27.40;61.60;;;;;;5140081;27;20047;-74
2023/08/28 08:19:33;;;;;;;3.13;1.20;;;26.90;64.00;;;;;;5140415;27;20435;-74
2023/08/28 08:21:59;;;;;;;4.05;1.30;;;26.50;64.80;;;;;;5106241;27;20046;-74
2023/08/28 08:24:24;;;;;;;4.00;1.30;;;26.10;55.20;;;;;;5105889;27;20107;-74
2023/08/28 08:26:50;;;;;;;1.95;1.20;;;25.80;57.90;;;;;;5105656;27;20050;-74
2023/08/28 08:29:16;;;;;;;2.00;1.10;;;25.40;59.70;;;;;;5122469;27;20047;-74
2023/08/28 08:31:41;;;;;;;4.25;1.30;;;25.30;74.30;;;;;;5122821;27;20467;-74
2023/08/28 08:34:07;;;;;;;2.55;1.35;;;25.30;78.50;;;;;;5088537;27;20058;-74
2023/08/28 08:36:33;;;;;;;3.40;1.42;;;25.10;82.10;;;;;;5139894;27;20047;-74
2023/08/28 08:38:59;;;;;;;5.32;1.02;;;25.00;83.50;;;;;;5122790;27;20105;-74
2023/08/28 08:41:25;;;;;;;3.20;1.20;;;24.90;85.30;;;;;;5105669;27;20082;-74
2023/08/28 08:43:50;;;;;;;2.67;1.15;;;24.80;88.00;;;;;;5105362;27;20043;-74
2023/08/28 08:46:19;;;;;;;4.28;1.10;;;24.50;89.20;;;;;;5122380;27;20047;-74
2023/08/28 08:48:46;;;;;;;3.13;1.20;;;24.30;90.70;;;;;;5139341;27;20398;-74
2023/08/28 08:51:16;;;;;;;4.90;1.43;;;24.10;92.10;;;;;;5139225;27;20494;-74
2023/08/28 08:53:43;;;;;;;2.60;1.20;;;23.80;93.70;;;;;;5122549;27;20034;-74
2023/08/28 08:56:15;;;;;;;2.50;1.20;;;23.70;95.50;;;;;;5122310;27;20058;-74
2023/08/28 08:58:42;;;;;;;3.73;1.13;;;23.70;97.00;;;;;;5122259;27;20043;-74
2023/08/28 09:01:09;;;;;;;2.13;0.90;;;23.60;96.00;;;;;;5139404;27;20039;-75
2023/08/28 09:03:38;;;;;;;3.60;1.33;;;23.60;96.50;;;;;;5139262;27;20047;-74
2023/08/28 09:06:06;;;;;;;2.37;1.00;;;23.60;93.30;;;;;;5122287;27;20046;-74
2023/08/28 09:08:35;;;;;;;2.97;1.10;;;23.60;93.60;;;;;;5121066;27;20125;-74
2023/08/28 09:11:04;;;;;;;3.37;1.20;;;23.70;92.70;;;;;;5139064;27;20089;-74
2023/08/28 09:13:30;;;;;;;2.10;1.00;;;23.60;92.70;;;;;;5104717;27;20054;-74
2023/08/28 09:15:57;;;;;;;1.57;0.90;;;23.50;93.30;;;;;;5122048;27;20082;-74
2023/08/28 09:18:25;;;;;;;3.43;1.00;;;23.30;94.50;;;;;;5138999;27;20097;-74
2023/08/28 09:21:08;;;;;;;3.77;1.33;;;23.00;95.20;;;;;;5122217;27;20054;-74
2023/08/28 09:23:40;;;;;;;2.30;1.00;;;22.90;96.40;;;;;;5120845;27;20077;-74
2023/08/28 09:26:06;;;;;;;2.20;1.10;;;22.60;96.80;;;;;;5122079;27;20086;-74
2023/08/28 09:28:31;;;;;;;3.87;1.33;;;22.70;98.80;;;;;;5121373;27;20105;-74
2023/08/28 09:30:57;;;;;;;3.10;1.00;;;22.80;99.70;;;;;;5121743;27;20092;-74
2023/08/28 09:33:23;;;;;;;2.83;0.93;;;22.80;99.90;;;;;;5138481;27;20050;-74
2023/08/28 09:35:48;;;;;;;1.77;0.90;;;22.80;98.60;;;;;;5087223;27;20375;-74
2023/08/28 09:38:14;;;;;;;2.27;1.00;;;22.70;97.40;;;;;;5121371;27;20039;-75
2023/08/28 09:40:41;;;;;;;2.27;1.10;;;22.70;96.80;;;;;;5138760;27;20123;-74
2023/08/28 09:43:14;;;;;;;2.43;1.10;;;22.70;97.80;;;;;;5157066;27;20078;-74
2023/08/28 09:45:44;;;;;;;3.23;1.33;;;22.50;99.20;;;;;;5122231;27;20043;-74
2023/08/28 09:48:10;;;;;;;3.50;1.40;;;22.60;99.60;;;;;;5104959;27;20053;-74
2023/08/28 09:50:41;;;;;;;3.03;1.10;;;22.60;99.90;;;;;;5121070;27;20064;-74
2023/08/28 09:53:15;;;;;;;3.23;1.20;;;22.60;99.90;;;;;;5138313;27;20050;-74
2023/08/28 09:55:51;;;;;;;4.53;0.90;;;22.60;99.90;;;;;;5138480;27;20095;-74
2023/08/28 09:58:17;;;;;;;4.57;1.20;;;22.80;99.90;;;;;;5138166;27;20038;-74
2023/08/28 10:00:44;;;;;;;2.13;1.10;;;22.60;99.90;;;;;;5156603;27;20050;-74
2023/08/28 10:03:14;;;;;;;2.10;1.10;;;22.40;99.90;;;;;;5121205;27;20034;-74
2023/08/28 10:05:42;;;;;;;2.80;1.30;;;22.30;99.90;;;;;;5137956;27;20049;-74
2023/08/28 10:08:17;;;;;;;2.67;1.00;;;22.20;99.90;;;;;;5104252;27;20130;-74
2023/08/28 10:10:47;;;;;;;3.10;1.40;;;22.20;99.90;;;;;;5121090;27;20051;-75
2023/08/28 10:13:21;;;;;;;2.53;0.93;;;22.10;99.90;;;;;;5156031;27;20058;-74
2023/08/28 10:16:11;;;;;;;2.22;1.15;;;22.10;99.90;;;;;;5138158;27;20042;-74
2023/08/28 10:19:06;;;;;;;2.80;1.30;;;21.90;99.90;;;;;;5120785;27;20055;-75
2023/08/28 10:21:32;;;;;;;;;;;;;;;;;;5120380;27;20035;-75
2023/08/28 10:23:59;;;;;;;3.10;1.20;;;;;;;;;;5120515;27;19926;-75
2023/08/28 10:26:26;;;;;;;2.53;1.00;;;21.80;99.90;;;;;;5120710;27;20125;-75
2023/08/28 10:28:52;;;;;;;2.73;1.20;;;21.80;99.90;;;;;;5137488;27;20045;-75
2023/08/28 10:31:24;;;;;;;3.70;1.10;;;21.80;99.90;;;;;;5121081;27;20607;-75
2023/08/28 10:33:52;;;;;;;3.87;1.20;;;21.80;99.90;;;;;;5137509;27;20095;-75
2023/08/28 10:36:20;;;;;;;2.77;1.10;;;21.80;99.90;;;;;;5103760;27;20046;-77
2023/08/28 10:38:47;;;;;;;4.47;1.33;;;21.90;99.90;;;;;;5155935;27;20121;-74
2023/08/28 10:41:14;;;;;;;4.60;1.10;;;22.00;99.90;;;;;;5086977;27;20116;-74
2023/08/28 10:43:40;;;;;;;4.93;1.33;;;21.90;99.90;;;;;;5120198;27;20475;-74
2023/08/28 10:46:07;;;;;;;2.53;1.10;;;22.00;99.90;;;;;;5155650;27;20498;-74
2023/08/28 10:48:38;;;;;;;2.80;1.10;;;21.90;99.90;;;;;;5119878;27;20085;-75
2023/08/28 10:51:04;;;;;;;2.47;1.20;;;22.10;99.90;;;;;;5120404;27;20099;-75
2023/08/28 10:53:29;;;;;;;4.07;1.27;;;22.10;99.90;;;;;;5120002;27;20436;-75
2023/08/28 10:55:57;;;;;;;3.50;1.10;;;21.90;99.90;;;;;;5120209;27;20038;-75
2023/08/28 10:58:28;;;;;;;2.10;1.03;;;22.20;99.90;;;;;;5119727;27;20053;-75
2023/08/28 11:01:17;;;;;;;3.20;1.30;;;22.10;99.90;;;;;;5137217;27;20046;-75
2023/08/28 11:03:53;;;;;;;2.37;1.03;;;22.20;99.90;;;;;;5137037;27;20465;-75
2023/08/28 11:06:43;;;;;;;4.27;1.20;;;22.00;99.90;;;;;;5120038;27;20049;-75
2023/08/28 11:09:34;;;;;;;3.40;1.07;;;22.00;99.90;;;;;;5136752;27;20038;-75
2023/08/28 11:12:02;;;;;;;2.47;1.43;;;21.80;99.90;;;;;;5124252;27;20506;-74
2023/08/28 11:14:38;;;;;;;1.93;0.93;;;21.90;99.90;;;;;;5136372;27;20107;-75
2023/08/28 11:17:07;;;;;;;2.33;1.13;;;21.80;99.90;;;;;;5119602;27;20050;-74
2023/08/28 11:19:56;;;;;;;3.00;1.20;;;21.60;99.90;;;;;;5136686;27;20058;-75
2023/08/28 11:22:33;;;;;;;3.90;1.20;;;21.60;99.90;;;;;;5136416;27;20134;-74
2023/08/28 11:25:01;;;;;;;2.27;1.17;;;21.70;99.90;;;;;;5119690;27;20658;-74
2023/08/28 11:27:43;;;;;;;2.77;1.00;;;22.00;99.90;;;;;;5136463;27;20355;-75
2023/08/28 11:30:11;;;;;;;2.47;1.37;;;21.90;99.90;;;;;;5136782;27;20046;-74
2023/08/28 11:32:39;;;;;;;2.10;1.00;;;21.80;99.90;;;;;;5135906;27;20039;-74
2023/08/28 11:35:10;;;;;;;2.13;1.00;;;21.80;99.90;;;;;;5119561;27;20078;-74
2023/08/28 11:37:44;;;;;;;3.53;1.20;;;22.00;99.90;;;;;;5136212;27;20076;-74
2023/08/28 11:40:11;;;;;;;2.87;1.10;;;21.80;99.90;;;;;;5103000;27;20050;-74
2023/08/28 11:42:37;;;;;;;3.13;1.00;;;21.90;99.90;;;;;;5119173;27;20454;-74
2023/08/28 11:45:05;;;;;;;1.83;1.27;;;21.80;99.90;;;;;;5119321;27;20173;-74
2023/08/28 11:47:32;;;;;;;4.53;1.40;;;21.90;99.90;;;;;;5119086;27;20056;-75
2023/08/28 11:49:59;;;;;;;2.63;1.00;;;22.00;99.90;;;;;;5102318;27;20061;-74
2023/08/28 11:52:26;;;;;;;2.23;1.20;;;22.10;99.90;;;;;;5136205;27;20089;-74
2023/08/28 11:54:58;;;;;;;1.77;1.00;;;22.10;99.90;;;;;;5102453;27;20034;-74
2023/08/28 11:57:25;;;;;;;2.37;0.90;;;22.00;99.90;;;;;;5136059;27;20054;-74
2023/08/28 12:00:04;;;;;;;2.97;0.98;;;21.90;99.90;;;;;;5136652;27;20104;-74
2023/08/28 12:02:29;;;;;;;3.10;1.10;;;22.00;99.90;;;;;;5102651;27;20051;-74
2023/08/28 12:04:55;;;;;;;2.17;1.03;;;22.10;99.90;;;;;;5136264;27;20451;-74
2023/08/28 12:07:24;;;;;;;2.27;0.97;;;21.90;99.90;;;;;;5119102;27;20088;-74
2023/08/28 12:09:52;;;;;;;12.60;1.93;;;22.00;99.90;;;;;;5136187;27;20053;-74
2023/08/28 12:12:19;;;;;;;2.80;1.00;;;21.90;99.90;;;;;;5119269;27;20082;-74
2023/08/28 12:14:46;;;;;;;8.60;1.43;;;21.90;99.90;;;;;;5118256;27;20054;-74
2023/08/28 12:17:16;;;;;;;2.50;1.03;;;21.90;99.90;;;;;;5136292;27;20095;-74
2023/08/28 12:19:43;;;;;;;2.93;1.00;;;22.00;99.90;;;;;;5118876;27;20064;-75
2023/08/28 12:22:10;;;;;;;8.77;1.10;;;22.20;99.90;;;;;;5135690;27;20102;-74
2023/08/28 12:24:44;;;;;;;3.70;1.07;;;22.10;99.90;;;;;;5117801;27;20149;-74
2023/08/28 12:27:11;;;;;;;4.10;1.17;;;22.10;99.90;;;;;;5118284;27;20068;-74
2023/08/28 12:29:42;;;;;;;3.33;1.20;;;22.10;99.90;;;;;;5134923;27;20502;-74
2023/08/28 12:32:17;;;;;;;3.83;1.20;;;22.00;99.90;;;;;;5135252;27;20046;-74
2023/08/28 12:34:44;;;;;;;3.63;1.00;;;21.90;99.90;;;;;;5118119;27;20050;-74
2023/08/28 12:37:11;;;;;;;3.40;1.10;;;22.00;99.90;;;;;;5135224;27;20047;-74
2023/08/28 12:39:56;;;;;;;2.43;1.10;;;22.10;99.90;;;;;;5135181;27;20131;-74
2023/08/28 12:42:22;;;;;;;2.42;0.90;;;22.10;99.90;;;;;;5101399;27;20126;-74
2023/08/28 12:44:48;;;;;;;3.23;1.23;;;22.30;99.90;;;;;;5120991;27;20438;-74
2023/08/28 12:47:17;;;;;;;2.80;1.00;;;22.10;99.90;;;;;;5122066;27;20050;-74
2023/08/28 12:49:43;;;;;;;12.97;2.03;;;22.00;99.90;;;;;;5139045;27;20054;-74
2023/08/28 12:52:12;;;;;;;3.30;1.30;;;22.20;99.90;;;;;;5157426;27;20055;-74